sensor_id;sensor_type;location;lat;lon;timestamp;pressure;altitude;pressure_sealevel;temperature;humidity
32733;BME280;11867;51.198;11.966;2022-10-22T00:03:51;99978.50;;;14.95;100.00
32733;BME280;11867;51.198;11.966;2022-10-22T00:08:55;99984.66;;;15.01;100.00
32733;BME280;11867;51.198;11.966;2022-10-22T00:13:57;99993.50;;;14.98;100.00
32733;BME280;11867;51.198;11.966;2022-10-22T00:19:00;100000.00;;;15.10;100.00
32733;BME280;11867;51.198;11.966;2022-10-22T00:24:04;100012.28;;;14.42;100.00
32733;BME280;11867;51.198;11.966;2022-10-22T00:29:07;100034.75;;;14.75;100.00
32733;BME280;11867;51.198;11.966;2022-10-22T00:34:12;100029.88;;;15.03;100.00
32733;BME280;11867;51.198;11.966;2022-10-22T00:39:19;100026.00;;;14.64;100.00
32733;BME280;11867;51.198;11.966;2022-10-22T00:45:09;100029.75;;;13.28;100.00
32733;BME280;11867;51.198;11.966;2022-10-22T00:50:18;100035.25;;;14.01;100.00
32733;BME280;11867;51.198;11.966;2022-10-22T00:55:25;100034.91;;;14.47;100.00
32733;BME280;11867;51.198;11.966;2022-10-22T01:00:29;100028.16;;;14.00;100.00
32733;BME280;11867;51.198;11.966;2022-10-22T01:12:02;100025.50;;;14.40;100.00
32733;BME280;11867;51.198;11.966;2022-10-22T01:17:13;100021.34;;;13.97;100.00
32733;BME280;11867;51.198;11.966;2022-10-22T01:22:29;100013.59;;;14.44;100.00
32733;BME280;11867;51.198;11.966;2022-10-22T01:27:41;100033.25;;;14.38;100.00
32733;BME280;11867;51.198;11.966;2022-10-22T01:32:53;100027.66;;;14.74;100.00
32733;BME280;11867;51.198;11.966;2022-10-22T01:38:00;100040.66;;;14.91;100.00
32733;BME280;11867;51.198;11.966;2022-10-22T01:43:06;100031.75;;;14.94;100.00
32733;BME280;11867;51.198;11.966;2022-10-22T01:48:28;100019.84;;;14.59;100.00
32733;BME280;11867;51.198;11.966;2022-10-22T01:53:40;100012.63;;;14.71;100.00
32733;BME280;11867;51.198;11.966;2022-10-22T01:58:53;100020.34;;;14.69;100.00
32733;BME280;11867;51.198;11.966;2022-10-22T02:04:03;100007.63;;;14.73;100.00
32733;BME280;11867;51.198;11.966;2022-10-22T02:09:08;100003.78;;;14.75;100.00
32733;BME280;11867;51.198;11.966;2022-10-22T02:14:13;99999.38;;;14.65;100.00
32733;BME280;11867;51.198;11.966;2022-10-22T02:19:22;99996.31;;;12.89;100.00
32733;BME280;11867;51.198;11.966;2022-10-22T02:24:26;99986.13;;;13.45;100.00
32733;BME280;11867;51.198;11.966;2022-10-22T02:29:35;99985.72;;;13.52;100.00
32733;BME280;11867;51.198;11.966;2022-10-22T02:34:41;99987.41;;;12.84;100.00
32733;BME280;11867;51.198;11.966;2022-10-22T02:39:44;99989.53;;;12.87;100.00
32733;BME280;11867;51.198;11.966;2022-10-22T02:44:47;99979.88;;;12.48;100.00
32733;BME280;11867;51.198;11.966;2022-10-22T02:49:51;99993.22;;;12.36;100.00
32733;BME280;11867;51.198;11.966;2022-10-22T02:54:53;99983.53;;;13.12;100.00
32733;BME280;11867;51.198;11.966;2022-10-22T02:59:56;99991.03;;;13.71;100.00
32733;BME280;11867;51.198;11.966;2022-10-22T03:05:00;100010.81;;;12.76;100.00
32733;BME280;11867;51.198;11.966;2022-10-22T03:10:03;100003.69;;;13.44;100.00
32733;BME280;11867;51.198;11.966;2022-10-22T03:15:06;100024.91;;;13.98;100.00
32733;BME280;11867;51.198;11.966;2022-10-22T03:20:10;100030.22;;;13.94;100.00
32733;BME280;11867;51.198;11.966;2022-10-22T03:25:16;100030.47;;;14.06;100.00
32733;BME280;11867;51.198;11.966;2022-10-22T03:30:21;100034.50;;;14.31;100.00
32733;BME280;11867;51.198;11.966;2022-10-22T03:35:25;100025.41;;;14.22;100.00
32733;BME280;11867;51.198;11.966;2022-10-22T03:40:28;100036.91;;;13.65;100.00
32733;BME280;11867;51.198;11.966;2022-10-22T03:45:31;100050.56;;;13.79;100.00
32733;BME280;11867;51.198;11.966;2022-10-22T03:50:35;100026.38;;;12.15;100.00
32733;BME280;11867;51.198;11.966;2022-10-22T03:55:40;100031.78;;;12.81;100.00
32733;BME280;11867;51.198;11.966;2022-10-22T04:00:43;100031.22;;;13.62;100.00
32733;BME280;11867;51.198;11.966;2022-10-22T04:05:47;100040.28;;;13.48;100.00
32733;BME280;11867;51.198;11.966;2022-10-22T04:10:50;100049.81;;;13.87;100.00
32733;BME280;11867;51.198;11.966;2022-10-22T04:15:53;100057.81;;;14.20;100.00
32733;BME280;11867;51.198;11.966;2022-10-22T04:20:57;100059.56;;;14.39;100.00
32733;BME280;11867;51.198;11.966;2022-10-22T04:26:01;100053.78;;;13.31;100.00
32733;BME280;11867;51.198;11.966;2022-10-22T04:31:07;100050.44;;;11.99;100.00
32733;BME280;11867;51.198;11.966;2022-10-22T04:36:15;100046.44;;;11.91;100.00
32733;BME280;11867;51.198;11.966;2022-10-22T04:41:19;100044.75;;;12.28;100.00
32733;BME280;11867;51.198;11.966;2022-10-22T04:46:23;100031.94;;;12.57;100.00
32733;BME280;11867;51.198;11.966;2022-10-22T04:51:27;100040.69;;;13.28;100.00
32733;BME280;11867;51.198;11.966;2022-10-22T04:56:31;100045.81;;;13.71;100.00
32733;BME280;11867;51.198;11.966;2022-10-22T05:01:35;100055.50;;;14.13;100.00
32733;BME280;11867;51.198;11.966;2022-10-22T05:06:44;100060.22;;;14.22;100.00
32733;BME280;11867;51.198;11.966;2022-10-22T05:11:50;100077.00;;;14.43;100.00
32733;BME280;11867;51.198;11.966;2022-10-22T05:16:53;100086.72;;;14.49;100.00
32733;BME280;11867;51.198;11.966;2022-10-22T05:21:59;100082.06;;;14.49;100.00
32733;BME280;11867;51.198;11.966;2022-10-22T05:27:05;100088.19;;;14.55;100.00
32733;BME280;11867;51.198;11.966;2022-10-22T05:32:07;100093.78;;;14.64;100.00
32733;BME280;11867;51.198;11.966;2022-10-22T05:37:11;100103.63;;;14.96;100.00
32733;BME280;11867;51.198;11.966;2022-10-22T05:42:14;100103.38;;;14.75;100.00
32733;BME280;11867;51.198;11.966;2022-10-22T05:47:17;100097.41;;;13.91;100.00
32733;BME280;11867;51.198;11.966;2022-10-22T05:52:21;100103.78;;;13.64;100.00
32733;BME280;11867;51.198;11.966;2022-10-22T05:57:23;100102.78;;;13.60;100.00
32733;BME280;11867;51.198;11.966;2022-10-22T06:02:26;100107.69;;;13.72;100.00
32733;BME280;11867;51.198;11.966;2022-10-22T06:07:30;100119.06;;;13.79;100.00
32733;BME280;11867;51.198;11.966;2022-10-22T06:12:34;100118.44;;;13.82;100.00
32733;BME280;11867;51.198;11.966;2022-10-22T06:17:36;100131.19;;;14.37;100.00
32733;BME280;11867;51.198;11.966;2022-10-22T06:22:40;100143.59;;;14.35;100.00
32733;BME280;11867;51.198;11.966;2022-10-22T06:27:48;100152.69;;;14.07;100.00
32733;BME280;11867;51.198;11.966;2022-10-22T06:32:52;100157.22;;;14.26;100.00
32733;BME280;11867;51.198;11.966;2022-10-22T06:37:55;100172.88;;;14.48;100.00
32733;BME280;11867;51.198;11.966;2022-10-22T06:42:58;100167.09;;;14.95;100.00
32733;BME280;11867;51.198;11.966;2022-10-22T06:48:01;100188.13;;;14.99;100.00
32733;BME280;11867;51.198;11.966;2022-10-22T06:53:05;100190.16;;;15.16;100.00
32733;BME280;11867;51.198;11.966;2022-10-22T06:58:08;100188.63;;;15.32;100.00
32733;BME280;11867;51.198;11.966;2022-10-22T07:03:11;100188.47;;;15.38;100.00
32733;BME280;11867;51.198;11.966;2022-10-22T07:08:16;100195.50;;;15.52;100.00
32733;BME280;11867;51.198;11.966;2022-10-22T07:13:18;100213.66;;;15.71;100.00
32733;BME280;11867;51.198;11.966;2022-10-22T07:18:21;100219.94;;;16.11;100.00
32733;BME280;11867;51.198;11.966;2022-10-22T07:23:25;100231.22;;;15.52;100.00
32733;BME280;11867;51.198;11.966;2022-10-22T07:28:29;100232.06;;;15.70;100.00
32733;BME280;11867;51.198;11.966;2022-10-22T07:33:33;100239.81;;;15.60;100.00
32733;BME280;11867;51.198;11.966;2022-10-22T07:38:37;100252.13;;;15.08;100.00
32733;BME280;11867;51.198;11.966;2022-10-22T07:43:39;100242.28;;;15.07;100.00
32733;BME280;11867;51.198;11.966;2022-10-22T07:48:42;100250.28;;;15.58;100.00
32733;BME280;11867;51.198;11.966;2022-10-22T07:53:46;100253.91;;;15.67;100.00
32733;BME280;11867;51.198;11.966;2022-10-22T07:58:49;100249.91;;;16.30;100.00
32733;BME280;11867;51.198;11.966;2022-10-22T08:03:53;100254.69;;;15.99;100.00
32733;BME280;11867;51.198;11.966;2022-10-22T08:08:58;100252.63;;;16.22;100.00
32733;BME280;11867;51.198;11.966;2022-10-22T08:14:02;100254.13;;;16.45;100.00
32733;BME280;11867;51.198;11.966;2022-10-22T08:19:05;100262.56;;;16.75;98.24
32733;BME280;11867;51.198;11.966;2022-10-22T08:24:13;100268.22;;;16.44;98.51
32733;BME280;11867;51.198;11.966;2022-10-22T08:29:17;100275.84;;;16.64;97.57
32733;BME280;11867;51.198;11.966;2022-10-22T08:34:22;100278.75;;;16.59;98.95
32733;BME280;11867;51.198;11.966;2022-10-22T08:39:26;100286.50;;;16.57;98.12
32733;BME280;11867;51.198;11.966;2022-10-22T08:44:37;100286.69;;;16.52;98.84
32733;BME280;11867;51.198;11.966;2022-10-22T08:49:45;100292.38;;;16.82;98.33
32733;BME280;11867;51.198;11.966;2022-10-22T08:54:51;100297.88;;;17.17;97.45
32733;BME280;11867;51.198;11.966;2022-10-22T08:59:58;100300.66;;;16.90;98.02
32733;BME280;11867;51.198;11.966;2022-10-22T09:05:15;100303.25;;;16.96;96.80
32733;BME280;11867;51.198;11.966;2022-10-22T09:10:27;100304.50;;;17.33;95.37
32733;BME280;11867;51.198;11.966;2022-10-22T09:15:31;100305.63;;;17.32;94.70
32733;BME280;11867;51.198;11.966;2022-10-22T09:20:37;100316.34;;;17.25;95.61
32733;BME280;11867;51.198;11.966;2022-10-22T09:25:43;100307.88;;;17.47;94.37
32733;BME280;11867;51.198;11.966;2022-10-22T09:30:48;100302.25;;;17.09;94.00
32733;BME280;11867;51.198;11.966;2022-10-22T09:35:52;100309.53;;;17.13;93.60
32733;BME280;11867;51.198;11.966;2022-10-22T09:40:58;100311.16;;;17.41;91.42
32733;BME280;11867;51.198;11.966;2022-10-22T09:46:07;100310.31;;;17.49;90.20
32733;BME280;11867;51.198;11.966;2022-10-22T09:51:18;100313.50;;;17.68;90.28
32733;BME280;11867;51.198;11.966;2022-10-22T09:56:26;100306.28;;;17.93;86.79
32733;BME280;11867;51.198;11.966;2022-10-22T10:01:31;100315.38;;;18.74;84.78
32733;BME280;11867;51.198;11.966;2022-10-22T10:06:35;100321.13;;;19.78;79.54
32733;BME280;11867;51.198;11.966;2022-10-22T10:11:45;100315.28;;;23.16;67.33
32733;BME280;11867;51.198;11.966;2022-10-22T10:16:55;100326.78;;;25.10;60.50
32733;BME280;11867;51.198;11.966;2022-10-22T10:22:09;100325.56;;;26.86;56.14
32733;BME280;11867;51.198;11.966;2022-10-22T10:27:22;100329.97;;;26.91;53.92
32733;BME280;11867;51.198;11.966;2022-10-22T10:32:39;100329.59;;;27.00;54.05
32733;BME280;11867;51.198;11.966;2022-10-22T10:38:13;100322.03;;;27.00;53.50
32733;BME280;11867;51.198;11.966;2022-10-22T10:43:27;100326.19;;;27.42;53.24
32733;BME280;11867;51.198;11.966;2022-10-22T10:48:43;100329.34;;;27.30;51.46
32733;BME280;11867;51.198;11.966;2022-10-22T10:54:02;100325.84;;;27.58;51.76
32733;BME280;11867;51.198;11.966;2022-10-22T10:59:13;100330.63;;;27.61;52.14
32733;BME280;11867;51.198;11.966;2022-10-22T11:04:40;100336.22;;;27.43;53.23
32733;BME280;11867;51.198;11.966;2022-10-22T11:09:52;100349.50;;;26.80;55.18
32733;BME280;11867;51.198;11.966;2022-10-22T11:15:01;100347.91;;;28.10;52.41
32733;BME280;11867;51.198;11.966;2022-10-22T11:20:13;100351.06;;;28.48;51.10
32733;BME280;11867;51.198;11.966;2022-10-22T11:25:21;100344.50;;;30.42;46.61
32733;BME280;11867;51.198;11.966;2022-10-22T11:30:32;100352.47;;;29.31;48.15
32733;BME280;11867;51.198;11.966;2022-10-22T11:35:38;100358.25;;;28.88;48.84
32733;BME280;11867;51.198;11.966;2022-10-22T11:40:45;100351.00;;;30.28;48.38
32733;BME280;11867;51.198;11.966;2022-10-22T11:45:56;100351.50;;;29.63;48.74
32733;BME280;11867;51.198;11.966;2022-10-22T11:51:00;100346.94;;;31.43;46.47
32733;BME280;11867;51.198;11.966;2022-10-22T11:56:22;100349.56;;;31.84;44.77
32733;BME280;11867;51.198;11.966;2022-10-22T12:01:28;100361.31;;;29.23;47.79
32733;BME280;11867;51.198;11.966;2022-10-22T12:07:02;100356.13;;;30.44;46.01
32733;BME280;11867;51.198;11.966;2022-10-22T12:12:12;100351.41;;;32.22;43.89
32733;BME280;11867;51.198;11.966;2022-10-22T12:17:19;100354.72;;;33.96;40.76
32733;BME280;11867;51.198;11.966;2022-10-22T12:22:25;100357.88;;;30.27;46.89
32733;BME280;11867;51.198;11.966;2022-10-22T12:27:34;100351.84;;;31.04;45.60
32733;BME280;11867;51.198;11.966;2022-10-22T12:32:38;100357.09;;;32.42;43.08
32733;BME280;11867;51.198;11.966;2022-10-22T12:37:41;100337.47;;;32.58;42.48
32733;BME280;11867;51.198;11.966;2022-10-22T12:42:53;100336.09;;;31.95;42.73
32733;BME280;11867;51.198;11.966;2022-10-22T12:48:00;100341.97;;;30.51;45.20
32733;BME280;11867;51.198;11.966;2022-10-22T12:53:04;100335.66;;;31.46;44.07
32733;BME280;11867;51.198;11.966;2022-10-22T12:58:13;100332.44;;;32.22;42.54
32733;BME280;11867;51.198;11.966;2022-10-22T13:03:26;100326.22;;;31.56;43.16
32733;BME280;11867;51.198;11.966;2022-10-22T13:08:29;100330.88;;;33.05;41.71
32733;BME280;11867;51.198;11.966;2022-10-22T13:13:39;100330.44;;;30.42;44.76
32733;BME280;11867;51.198;11.966;2022-10-22T13:18:45;100330.56;;;29.75;45.80
32733;BME280;11867;51.198;11.966;2022-10-22T13:23:52;100337.03;;;30.21;46.06
32733;BME280;11867;51.198;11.966;2022-10-22T13:28:56;100340.00;;;29.99;46.34
32733;BME280;11867;51.198;11.966;2022-10-22T13:34:04;100337.81;;;28.81;49.03
32733;BME280;11867;51.198;11.966;2022-10-22T13:39:16;100337.97;;;29.44;47.42
32733;BME280;11867;51.198;11.966;2022-10-22T13:44:19;100352.38;;;25.50;55.13
32733;BME280;11867;51.198;11.966;2022-10-22T13:49:25;100346.81;;;23.86;59.98
32733;BME280;11867;51.198;11.966;2022-10-22T13:54:27;100341.75;;;26.55;54.68
32733;BME280;11867;51.198;11.966;2022-10-22T13:59:30;100348.88;;;27.19;53.03
32733;BME280;11867;51.198;11.966;2022-10-22T14:04:35;100348.97;;;27.41;52.39
32733;BME280;11867;51.198;11.966;2022-10-22T14:09:40;100347.88;;;28.64;48.99
32733;BME280;11867;51.198;11.966;2022-10-22T14:14:43;100344.31;;;27.95;51.25
32733;BME280;11867;51.198;11.966;2022-10-22T14:19:48;100350.28;;;28.58;50.12
32733;BME280;11867;51.198;11.966;2022-10-22T14:24:50;100363.81;;;28.95;49.08
32733;BME280;11867;51.198;11.966;2022-10-22T14:29:55;100361.25;;;31.25;45.35
32733;BME280;11867;51.198;11.966;2022-10-22T14:35:01;100355.22;;;30.92;45.16
32733;BME280;11867;51.198;11.966;2022-10-22T14:40:05;100362.50;;;30.89;45.41
32733;BME280;11867;51.198;11.966;2022-10-22T14:45:12;100365.09;;;31.96;43.17
32733;BME280;11867;51.198;11.966;2022-10-22T14:50:17;100380.94;;;26.59;52.36
32733;BME280;11867;51.198;11.966;2022-10-22T14:55:20;100380.69;;;23.49;59.07
32733;BME280;11867;51.198;11.966;2022-10-22T15:00:23;100383.34;;;22.87;61.16
32733;BME280;11867;51.198;11.966;2022-10-22T15:05:27;100380.13;;;22.18;63.12
32733;BME280;11867;51.198;11.966;2022-10-22T15:10:30;100377.31;;;21.42;65.11
32733;BME280;11867;51.198;11.966;2022-10-22T15:15:33;100387.63;;;20.89;67.61
32733;BME280;11867;51.198;11.966;2022-10-22T15:20:41;100387.16;;;20.25;69.29
32733;BME280;11867;51.198;11.966;2022-10-22T15:25:44;100398.47;;;20.32;69.42
32733;BME280;11867;51.198;11.966;2022-10-22T15:30:51;100407.31;;;20.01;70.93
32733;BME280;11867;51.198;11.966;2022-10-22T15:35:56;100402.22;;;19.91;70.94
32733;BME280;11867;51.198;11.966;2022-10-22T15:40:59;100417.34;;;19.39;73.22
32733;BME280;11867;51.198;11.966;2022-10-22T15:46:11;100426.94;;;18.91;75.79
32733;BME280;11867;51.198;11.966;2022-10-22T15:51:17;100431.53;;;18.78;75.66
32733;BME280;11867;51.198;11.966;2022-10-22T15:56:21;100427.81;;;18.83;76.93
32733;BME280;11867;51.198;11.966;2022-10-22T16:01:24;100424.31;;;19.36;75.33
32733;BME280;11867;51.198;11.966;2022-10-22T16:06:31;100424.09;;;18.79;77.97
32733;BME280;11867;51.198;11.966;2022-10-22T16:11:34;100428.13;;;18.13;80.92
32733;BME280;11867;51.198;11.966;2022-10-22T16:16:41;100450.06;;;17.74;83.48
32733;BME280;11867;51.198;11.966;2022-10-22T16:21:47;100454.09;;;17.77;83.40
32733;BME280;11867;51.198;11.966;2022-10-22T16:26:52;100464.16;;;16.63;89.80
32733;BME280;11867;51.198;11.966;2022-10-22T16:31:54;100467.69;;;16.95;88.76
32733;BME280;11867;51.198;11.966;2022-10-22T16:36:59;100470.09;;;16.48;91.35
32733;BME280;11867;51.198;11.966;2022-10-22T16:42:01;100475.56;;;16.39;91.52
32733;BME280;11867;51.198;11.966;2022-10-22T16:47:04;100485.97;;;16.51;91.33
32733;BME280;11867;51.198;11.966;2022-10-22T16:52:10;100492.28;;;16.83;88.87
32733;BME280;11867;51.198;11.966;2022-10-22T16:57:12;100500.09;;;16.98;87.31
32733;BME280;11867;51.198;11.966;2022-10-22T17:02:15;100503.59;;;17.39;84.32
32733;BME280;11867;51.198;11.966;2022-10-22T17:07:19;100511.38;;;17.98;81.73
32733;BME280;11867;51.198;11.966;2022-10-22T17:12:22;100513.16;;;17.93;82.13
32733;BME280;11867;51.198;11.966;2022-10-22T17:17:25;100514.25;;;17.14;86.10
32733;BME280;11867;51.198;11.966;2022-10-22T17:22:29;100514.50;;;16.95;86.85
32733;BME280;11867;51.198;11.966;2022-10-22T17:27:33;100528.22;;;16.55;88.54
32733;BME280;11867;51.198;11.966;2022-10-22T17:32:37;100540.66;;;16.44;89.02
32733;BME280;11867;51.198;11.966;2022-10-22T17:37:41;100544.34;;;16.39;89.02
32733;BME280;11867;51.198;11.966;2022-10-22T17:42:45;100532.53;;;15.93;90.33
32733;BME280;11867;51.198;11.966;2022-10-22T17:47:49;100539.72;;;16.03;90.11
32733;BME280;11867;51.198;11.966;2022-10-22T17:52:54;100538.97;;;16.11;89.75
32733;BME280;11867;51.198;11.966;2022-10-22T17:57:57;100546.44;;;16.11;90.18
32733;BME280;11867;51.198;11.966;2022-10-22T18:02:59;100558.91;;;16.40;87.52
32733;BME280;11867;51.198;11.966;2022-10-22T18:08:04;100566.28;;;16.53;87.55
32733;BME280;11867;51.198;11.966;2022-10-22T18:13:08;100565.88;;;15.92;90.24
32733;BME280;11867;51.198;11.966;2022-10-22T18:18:10;100564.16;;;15.82;91.68
32733;BME280;11867;51.198;11.966;2022-10-22T18:23:15;100570.66;;;15.86;91.32
32733;BME280;11867;51.198;11.966;2022-10-22T18:28:18;100567.91;;;15.86;91.48
32733;BME280;11867;51.198;11.966;2022-10-22T18:33:21;100568.00;;;15.45;94.11
32733;BME280;11867;51.198;11.966;2022-10-22T18:38:25;100577.25;;;15.35;94.58
32733;BME280;11867;51.198;11.966;2022-10-22T18:43:28;100571.97;;;15.25;95.52
32733;BME280;11867;51.198;11.966;2022-10-22T18:48:31;100583.78;;;15.11;96.36
32733;BME280;11867;51.198;11.966;2022-10-22T18:53:36;100582.53;;;14.90;97.95
32733;BME280;11867;51.198;11.966;2022-10-22T18:58:39;100590.06;;;14.98;97.45
32733;BME280;11867;51.198;11.966;2022-10-22T19:03:42;100579.94;;;14.99;96.93
32733;BME280;11867;51.198;11.966;2022-10-22T19:08:46;100577.25;;;14.80;97.83
32733;BME280;11867;51.198;11.966;2022-10-22T19:13:51;100575.72;;;14.73;98.91
32733;BME280;11867;51.198;11.966;2022-10-22T19:18:58;100585.38;;;14.71;98.79
32733;BME280;11867;51.198;11.966;2022-10-22T19:24:04;100582.41;;;14.67;98.88
32733;BME280;11867;51.198;11.966;2022-10-22T19:29:07;100593.84;;;15.16;95.66
32733;BME280;11867;51.198;11.966;2022-10-22T19:34:11;100601.16;;;15.21;95.37
32733;BME280;11867;51.198;11.966;2022-10-22T19:39:15;100608.13;;;14.58;98.29
32733;BME280;11867;51.198;11.966;2022-10-22T19:44:18;100618.81;;;14.21;100.00
32733;BME280;11867;51.198;11.966;2022-10-22T19:49:21;100611.88;;;14.62;99.35
32733;BME280;11867;51.198;11.966;2022-10-22T19:54:25;100615.88;;;14.50;100.00
32733;BME280;11867;51.198;11.966;2022-10-22T19:59:28;100612.22;;;14.55;99.54
32733;BME280;11867;51.198;11.966;2022-10-22T20:04:32;100624.22;;;14.78;96.62
32733;BME280;11867;51.198;11.966;2022-10-22T20:09:38;100627.13;;;14.49;98.91
32733;BME280;11867;51.198;11.966;2022-10-22T20:14:40;100626.31;;;14.67;98.29
32733;BME280;11867;51.198;11.966;2022-10-22T20:19:43;100638.66;;;14.84;96.87
32733;BME280;11867;51.198;11.966;2022-10-22T20:24:47;100644.31;;;14.22;100.00
32733;BME280;11867;51.198;11.966;2022-10-22T20:29:50;100649.44;;;13.90;100.00
32733;BME280;11867;51.198;11.966;2022-10-22T20:34:53;100661.38;;;14.19;100.00
32733;BME280;11867;51.198;11.966;2022-10-22T20:39:57;100655.50;;;14.25;100.00
32733;BME280;11867;51.198;11.966;2022-10-22T20:44:59;100664.72;;;14.67;98.50
32733;BME280;11867;51.198;11.966;2022-10-22T20:50:03;100676.28;;;14.83;97.28
32733;BME280;11867;51.198;11.966;2022-10-22T20:55:07;100664.63;;;15.19;95.17
32733;BME280;11867;51.198;11.966;2022-10-22T21:00:10;100651.94;;;15.37;93.69
32733;BME280;11867;51.198;11.966;2022-10-22T21:05:13;100654.16;;;15.21;94.65
32733;BME280;11867;51.198;11.966;2022-10-22T21:10:17;100662.72;;;15.61;92.35
32733;BME280;11867;51.198;11.966;2022-10-22T21:15:20;100665.06;;;15.68;91.18
32733;BME280;11867;51.198;11.966;2022-10-22T21:20:23;100668.22;;;15.47;91.88
32733;BME280;11867;51.198;11.966;2022-10-22T21:25:27;100665.22;;;14.56;98.18
32733;BME280;11867;51.198;11.966;2022-10-22T21:30:30;100667.31;;;14.78;96.68
32733;BME280;11867;51.198;11.966;2022-10-22T21:35:33;100660.19;;;14.77;95.28
32733;BME280;11867;51.198;11.966;2022-10-22T21:40:37;100645.22;;;14.69;95.39
32733;BME280;11867;51.198;11.966;2022-10-22T21:45:40;100651.16;;;14.76;94.51
32733;BME280;11867;51.198;11.966;2022-10-22T21:50:43;100647.69;;;14.51;95.35
32733;BME280;11867;51.198;11.966;2022-10-22T21:55:47;100671.56;;;12.68;100.00
32733;BME280;11867;51.198;11.966;2022-10-22T22:00:54;100674.00;;;12.41;100.00
32733;BME280;11867;51.198;11.966;2022-10-22T22:05:57;100661.25;;;11.71;100.00
32733;BME280;11867;51.198;11.966;2022-10-22T22:11:03;100667.44;;;11.92;100.00
32733;BME280;11867;51.198;11.966;2022-10-22T22:16:07;100675.72;;;12.95;100.00
32733;BME280;11867;51.198;11.966;2022-10-22T22:21:12;100675.34;;;12.78;100.00
32733;BME280;11867;51.198;11.966;2022-10-22T22:26:20;100681.16;;;13.24;100.00
32733;BME280;11867;51.198;11.966;2022-10-22T22:31:30;100679.56;;;13.47;99.89
32733;BME280;11867;51.198;11.966;2022-10-22T22:36:36;100682.78;;;13.55;98.69
32733;BME280;11867;51.198;11.966;2022-10-22T22:41:41;100684.75;;;13.73;98.40
32733;BME280;11867;51.198;11.966;2022-10-22T22:46:44;100691.31;;;13.72;98.70
32733;BME280;11867;51.198;11.966;2022-10-22T22:51:47;100691.06;;;13.92;96.95
32733;BME280;11867;51.198;11.966;2022-10-22T22:56:52;100700.41;;;13.91;96.95
32733;BME280;11867;51.198;11.966;2022-10-22T23:01:54;100698.25;;;14.07;96.12
32733;BME280;11867;51.198;11.966;2022-10-22T23:06:57;100687.00;;;13.18;100.00
32733;BME280;11867;51.198;11.966;2022-10-22T23:12:01;100675.41;;;13.26;100.00
32733;BME280;11867;51.198;11.966;2022-10-22T23:17:04;100675.69;;;13.00;100.00
32733;BME280;11867;51.198;11.966;2022-10-22T23:22:06;100676.22;;;13.02;100.00
32733;BME280;11867;51.198;11.966;2022-10-22T23:27:10;100665.66;;;13.44;99.87
32733;BME280;11867;51.198;11.966;2022-10-22T23:32:13;100656.81;;;13.71;97.34
32733;BME280;11867;51.198;11.966;2022-10-22T23:37:16;100664.19;;;13.51;97.64
32733;BME280;11867;51.198;11.966;2022-10-22T23:42:20;100662.31;;;13.71;97.47
32733;BME280;11867;51.198;11.966;2022-10-22T23:47:22;100650.31;;;13.67;96.31
32733;BME280;11867;51.198;11.966;2022-10-22T23:52:25;100642.47;;;12.14;100.00
32733;BME280;11867;51.198;11.966;2022-10-22T23:57:29;100628.72;;;12.88;100.00
